Metar Aviation Weather Data KAVP Wilkes-Barre / Scranton International

50°F Temp
37°F Dewpoint
62% Humidity
Temperature
13 MPH
21 KM/H
11 KTS
300°
West North
West

Wind Speed
Mostly Scattered
Clouds
Pressure 1015.9 (hPa) - 30 (in)
Visibility 10.0 (mi) - 16.1 (km)

Current Conditions
KAVP
Wilkes-Barre / Scranton International 6 km (3.2 mi)
Metar :KAVP 232154Z 30011G16KT 10SM SCT040 BKN080 OVC090 10/03 A3000 RMK AO2 SLP159 T01000033
Tue 23rd October 17:54 pm

Airport
  Metar Aviation API Data Provided by https://www.checkwx.com/ PHP scripts by weather34.com ©2018